createdAt,value
2017-09-24T00:00:49.195Z,4.03
2017-09-24T00:03:16.637Z,4.20
2017-09-24T00:05:43.297Z,4.67
2017-09-24T00:08:10.015Z,4.30
2017-09-24T00:10:37.070Z,5.77
2017-09-24T00:13:03.783Z,4.00
2017-09-24T00:15:30.589Z,4.63
2017-09-24T00:17:58.510Z,4.73
2017-09-24T00:20:25.136Z,4.63
2017-09-24T00:22:51.745Z,3.97
2017-09-24T00:25:19.594Z,4.30
2017-09-24T00:27:46.247Z,3.57
2017-09-24T00:30:13.664Z,3.97
2017-09-24T00:32:40.996Z,4.00
2017-09-24T00:35:07.643Z,4.00
2017-09-24T00:37:34.282Z,3.50
2017-09-24T00:40:03.734Z,4.00
2017-09-24T00:42:30.378Z,3.37
2017-09-24T00:44:57.751Z,3.73
2017-09-24T00:47:25.481Z,4.63
2017-09-24T00:49:52.847Z,4.20
2017-09-24T00:52:20.237Z,4.87
2017-09-24T00:54:47.190Z,3.70
2017-09-24T00:57:13.849Z,4.23
2017-09-24T00:59:41.181Z,4.30
2017-09-24T01:02:07.801Z,3.80
2017-09-24T01:04:34.422Z,4.00
2017-09-24T01:07:02.214Z,4.03
2017-09-24T01:09:28.830Z,4.03
2017-09-24T01:11:56.176Z,3.57
2017-09-24T01:14:24.286Z,4.70
2017-09-24T01:16:50.954Z,3.30
2017-09-24T01:19:17.870Z,3.60
2017-09-24T01:21:44.947Z,4.53
2017-09-24T01:24:11.583Z,3.37
2017-09-24T01:26:38.195Z,3.57
2017-09-24T01:29:05.043Z,4.00
2017-09-24T01:31:31.705Z,3.93
2017-09-24T01:33:58.351Z,3.70
2017-09-24T01:36:25.354Z,3.90
2017-09-24T01:38:52.006Z,3.53
2017-09-24T01:41:18.658Z,3.57
2017-09-24T01:43:45.727Z,3.40
2017-09-24T01:46:12.725Z,3.70
2017-09-24T01:48:39.369Z,4.10
2017-09-24T01:51:06.825Z,3.53
2017-09-24T01:53:33.453Z,4.43
2017-09-24T01:56:00.090Z,3.43
2017-09-24T01:58:27.349Z,4.50
2017-09-24T02:00:53.958Z,3.23
2017-09-24T02:03:21.338Z,3.47
2017-09-24T02:05:48.593Z,4.30
2017-09-24T02:08:15.195Z,3.53
2017-09-24T02:10:42.566Z,3.83
2017-09-24T02:13:09.574Z,3.83
2017-09-24T02:15:37.668Z,3.40
2017-09-24T02:18:05.366Z,3.47
2017-09-24T02:20:32.348Z,4.93
2017-09-24T02:22:58.979Z,4.17
2017-09-24T02:25:25.604Z,4.60
2017-09-24T02:27:52.668Z,3.50
2017-09-24T02:30:19.522Z,4.40
2017-09-24T02:32:47.733Z,3.53
2017-09-24T02:35:14.846Z,3.60
2017-09-24T02:37:42.190Z,2.70
2017-09-24T02:40:09.574Z,4.00
2017-09-24T02:42:37.418Z,3.20
2017-09-24T02:45:04.322Z,3.80
2017-09-24T02:47:30.944Z,2.90
2017-09-24T02:49:58.038Z,3.53
2017-09-24T02:52:24.688Z,3.20
2017-09-24T02:54:52.052Z,3.87
2017-09-24T02:57:19.181Z,3.33
2017-09-24T02:59:45.785Z,3.23
2017-09-24T03:02:12.403Z,3.30
2017-09-24T03:04:39.673Z,3.60
2017-09-24T03:07:06.618Z,3.27
2017-09-24T03:09:33.587Z,3.40
2017-09-24T03:12:00.918Z,3.40
2017-09-24T03:14:27.533Z,3.50
2017-09-24T03:16:54.902Z,3.27
2017-09-24T03:19:21.798Z,3.70
2017-09-24T03:21:48.434Z,2.97
2017-09-24T03:24:15.072Z,3.13
2017-09-24T03:26:43.533Z,3.30
2017-09-24T03:29:10.148Z,2.93
2017-09-24T03:31:36.759Z,2.97
2017-09-24T03:34:04.594Z,3.27
2017-09-24T03:36:31.207Z,6.03
2017-09-24T03:38:57.838Z,2.97
2017-09-24T03:41:25.015Z,3.47
2017-09-24T03:43:51.634Z,2.90
2017-09-24T03:46:18.980Z,2.87
2017-09-24T03:48:46.048Z,3.20
2017-09-24T03:51:12.648Z,3.13
2017-09-24T03:53:39.254Z,3.00
2017-09-24T03:56:06.995Z,3.00
2017-09-24T03:58:33.629Z,3.10
2017-09-24T04:01:06.578Z,3.40
2017-09-24T04:03:33.657Z,3.23
2017-09-24T04:06:00.294Z,2.83
2017-09-24T04:08:26.914Z,2.60
2017-09-24T04:10:53.993Z,3.23
2017-09-24T04:13:22.083Z,3.53
2017-09-24T04:15:49.424Z,2.70
2017-09-24T04:18:16.726Z,3.13
2017-09-24T04:20:43.342Z,3.13
2017-09-24T04:23:10.688Z,3.20
2017-09-24T04:25:38.423Z,2.60
2017-09-24T04:28:06.534Z,3.33
2017-09-24T04:30:33.904Z,2.60
2017-09-24T04:33:01.247Z,3.43
2017-09-24T04:35:27.860Z,3.07
2017-09-24T04:37:55.213Z,2.97
2017-09-24T04:40:23.043Z,3.30
2017-09-24T04:42:50.458Z,3.03
2017-09-24T04:45:18.240Z,3.20
2017-09-24T04:47:45.326Z,2.53
2017-09-24T04:50:11.952Z,2.80
2017-09-24T04:52:38.579Z,2.63
2017-09-24T04:55:05.439Z,2.60
2017-09-24T04:57:32.352Z,2.60
2017-09-24T04:59:58.977Z,2.83
2017-09-24T05:02:25.973Z,3.00
2017-09-24T05:04:53.341Z,3.07
2017-09-24T05:07:20.711Z,2.67
2017-09-24T05:09:48.714Z,2.53
2017-09-24T05:12:15.658Z,2.67
2017-09-24T05:14:42.285Z,3.17
2017-09-24T05:17:09.320Z,2.70
2017-09-24T05:19:36.683Z,2.93
2017-09-24T05:22:03.296Z,3.10
2017-09-24T05:24:31.003Z,2.53
2017-09-24T05:26:57.644Z,2.80
2017-09-24T05:29:24.274Z,2.67
2017-09-24T05:31:51.356Z,3.00
2017-09-24T05:34:18.217Z,2.33
2017-09-24T05:36:44.836Z,2.80
2017-09-24T05:39:11.691Z,3.07
2017-09-24T05:41:38.315Z,2.70
2017-09-24T05:44:05.121Z,5.10
2017-09-24T05:46:32.100Z,2.60
2017-09-24T05:48:58.712Z,2.50
2017-09-24T05:51:25.382Z,3.83
2017-09-24T05:53:52.354Z,4.90
2017-09-24T05:56:19.765Z,3.37
2017-09-24T05:58:46.507Z,2.97
2017-09-24T06:01:13.579Z,2.53
2017-09-24T06:03:40.186Z,3.03
2017-09-24T06:06:06.782Z,5.00
2017-09-24T06:08:34.570Z,5.73
2017-09-24T06:11:01.514Z,3.73
2017-09-24T06:13:28.140Z,4.13
2017-09-24T06:15:55.307Z,6.47
2017-09-24T06:18:21.920Z,4.10
2017-09-24T06:20:49.416Z,8.63
2017-09-24T06:23:16.057Z,2.83
2017-09-24T06:25:42.982Z,3.23
2017-09-24T06:28:10.342Z,5.43
2017-09-24T06:30:36.970Z,9.00
2017-09-24T06:33:03.593Z,3.17
2017-09-24T06:35:30.669Z,6.83
2017-09-24T06:37:57.354Z,2.87
2017-09-24T06:40:24.447Z,3.70
2017-09-24T06:42:51.334Z,2.70
2017-09-24T06:45:18.126Z,3.37
2017-09-24T06:47:44.742Z,3.53
2017-09-24T06:50:12.120Z,3.03
2017-09-24T06:52:39.069Z,5.27
2017-09-24T06:55:05.950Z,3.40
2017-09-24T06:57:32.854Z,4.47
2017-09-24T06:59:59.476Z,2.80
2017-09-24T07:02:27.154Z,3.93
2017-09-24T07:04:53.774Z,9.50
2017-09-24T07:07:20.389Z,3.00
2017-09-24T07:09:48.399Z,2.60
2017-09-24T07:12:15.002Z,3.57
2017-09-24T07:14:42.353Z,2.77
2017-09-24T07:17:10.090Z,2.80
2017-09-24T07:19:36.996Z,3.20
2017-09-24T07:22:03.629Z,4.70
2017-09-24T07:24:30.278Z,3.27
2017-09-24T07:26:56.890Z,3.40
2017-09-24T07:29:24.619Z,9.57
2017-09-24T07:31:51.967Z,21.57
2017-09-24T07:34:18.598Z,19.40
2017-09-24T07:36:45.479Z,14.13
2017-09-24T07:39:13.205Z,6.23
2017-09-24T07:41:39.861Z,12.93
2017-09-24T07:44:06.462Z,14.30
2017-09-24T07:46:33.546Z,15.13
2017-09-24T07:49:01.666Z,13.20
2017-09-24T07:51:28.298Z,10.37
2017-09-24T07:53:55.978Z,8.03
2017-09-24T07:56:22.590Z,7.67
2017-09-24T07:58:49.215Z,6.37
2017-09-24T08:01:16.940Z,9.50
2017-09-24T08:03:43.589Z,8.60
2017-09-24T08:06:10.992Z,6.30
2017-09-24T08:08:38.090Z,6.50
2017-09-24T08:11:04.725Z,3.13
2017-09-24T08:13:31.358Z,4.17
2017-09-24T08:15:58.412Z,6.20
2017-09-24T08:18:25.777Z,10.73
2017-09-24T08:20:52.367Z,8.37
2017-09-24T08:23:19.328Z,10.17
2017-09-24T08:25:46.398Z,38.03
2017-09-24T08:28:13.777Z,55.07
2017-09-24T08:30:41.474Z,53.63
2017-09-24T08:33:08.929Z,47.23
2017-09-24T08:35:35.543Z,38.77
2017-09-24T08:38:03.064Z,33.33
2017-09-24T08:40:29.733Z,25.47
2017-09-24T08:42:57.369Z,24.70
2017-09-24T08:45:23.990Z,23.30
2017-09-24T08:47:50.601Z,12.67
2017-09-24T08:50:17.577Z,14.00
2017-09-24T08:52:45.312Z,36.20
2017-09-24T08:55:11.942Z,14.97
2017-09-24T08:57:39.232Z,13.93
2017-09-24T09:00:05.857Z,13.40
2017-09-24T09:02:32.777Z,15.50
2017-09-24T09:04:59.761Z,24.33
2017-09-24T09:07:26.361Z,13.43
2017-09-24T09:09:52.982Z,10.23
2017-09-24T09:12:20.337Z,7.83
2017-09-24T09:14:47.301Z,13.00
2017-09-24T09:17:13.952Z,12.50
2017-09-24T09:19:41.294Z,11.10
2017-09-24T09:22:07.903Z,16.73
2017-09-24T09:24:35.245Z,13.17
2017-09-24T09:27:02.619Z,16.00
2017-09-24T09:29:30.233Z,6.83
2017-09-24T09:31:57.142Z,9.77
2017-09-24T09:34:33.221Z,5.57
2017-09-24T09:36:59.860Z,7.63
2017-09-24T09:39:26.805Z,6.57
2017-09-24T09:41:53.476Z,9.73
2017-09-24T09:44:39.619Z,7.50
2017-09-24T09:47:24.665Z,16.07
2017-09-24T09:49:53.374Z,13.60
2017-09-24T09:52:20.008Z,13.90
2017-09-24T09:54:46.630Z,37.13
2017-09-24T09:57:13.638Z,40.77
2017-09-24T09:59:41.742Z,82.53
2017-09-24T10:02:09.108Z,56.87
2017-09-24T10:04:36.206Z,41.43
2017-09-24T10:07:21.465Z,22.20
2017-09-24T10:10:06.574Z,18.87
2017-09-24T10:12:34.130Z,41.67
2017-09-24T10:15:00.794Z,20.33
2017-09-24T10:17:28.618Z,31.67
2017-09-24T10:19:55.274Z,28.57
2017-09-24T10:22:22.051Z,14.50
2017-09-24T10:24:48.709Z,29.77
2017-09-24T10:27:15.329Z,12.80
2017-09-24T10:30:00.650Z,17.27
2017-09-24T10:32:28.112Z,19.43
2017-09-24T10:34:55.712Z,29.23
2017-09-24T10:37:22.617Z,25.80
2017-09-24T10:39:50.697Z,10.00
2017-09-24T10:42:17.339Z,24.07
2017-09-24T10:44:45.354Z,23.77
2017-09-24T10:47:11.992Z,24.37
2017-09-24T10:49:38.594Z,21.13
2017-09-24T10:52:06.321Z,13.23
2017-09-24T10:54:33.234Z,12.77
2017-09-24T10:56:59.846Z,21.53
2017-09-24T10:59:27.680Z,19.43
2017-09-24T11:01:54.341Z,15.57
2017-09-24T11:04:22.036Z,11.37
2017-09-24T11:06:48.678Z,14.50
2017-09-24T11:09:15.318Z,16.50
2017-09-24T11:11:41.938Z,7.40
2017-09-24T11:14:08.870Z,13.47
2017-09-24T11:16:36.240Z,16.50
2017-09-24T11:19:03.191Z,17.40
2017-09-24T11:21:30.386Z,15.23
2017-09-24T11:23:57.055Z,8.43
2017-09-24T11:26:24.413Z,17.10
2017-09-24T11:28:51.382Z,9.90
2017-09-24T11:31:18.034Z,14.23
2017-09-24T11:33:44.676Z,9.60
2017-09-24T11:36:11.270Z,16.03
2017-09-24T11:38:39.014Z,10.33
2017-09-24T11:41:05.634Z,6.60
2017-09-24T11:43:32.538Z,9.33
2017-09-24T11:45:59.795Z,10.80
2017-09-24T11:48:26.483Z,5.70
2017-09-24T11:50:53.127Z,7.10
2017-09-24T11:53:20.803Z,9.90
2017-09-24T11:55:48.176Z,8.60
2017-09-24T11:58:14.899Z,7.93
2017-09-24T12:00:42.834Z,4.17
2017-09-24T12:03:10.951Z,12.43
2017-09-24T12:05:37.564Z,6.70
2017-09-24T12:08:05.412Z,8.70
2017-09-24T12:10:33.855Z,6.83
2017-09-24T12:13:00.476Z,12.77
2017-09-24T12:15:27.679Z,10.77
2017-09-24T12:17:55.164Z,7.23
2017-09-24T12:20:22.541Z,9.60
2017-09-24T12:22:49.191Z,5.77
2017-09-24T12:25:16.264Z,7.00
2017-09-24T12:27:43.178Z,7.97
2017-09-24T12:30:09.809Z,9.57
2017-09-24T12:32:36.807Z,13.47
2017-09-24T12:35:03.443Z,11.03
2017-09-24T12:37:30.161Z,6.67
2017-09-24T12:39:57.333Z,4.83
2017-09-24T12:42:24.719Z,5.90
2017-09-24T12:44:52.614Z,7.70
2017-09-24T12:47:20.113Z,5.83
2017-09-24T12:49:47.013Z,5.90
2017-09-24T12:52:13.963Z,5.77
2017-09-24T12:54:41.159Z,4.50
2017-09-24T12:57:07.767Z,7.10
2017-09-24T12:59:34.390Z,7.13
2017-09-24T13:02:01.088Z,4.87
2017-09-24T13:04:28.481Z,7.00
2017-09-24T13:06:55.138Z,5.00
2017-09-24T13:09:22.107Z,4.13
2017-09-24T13:11:49.724Z,6.73
2017-09-24T13:14:22.955Z,5.60
2017-09-24T13:16:49.624Z,7.93
2017-09-24T13:19:16.977Z,6.23
2017-09-24T13:21:44.718Z,4.70
2017-09-24T13:24:11.345Z,6.00
2017-09-24T13:26:37.970Z,6.83
2017-09-24T13:29:05.383Z,4.33
2017-09-24T13:31:32.984Z,5.33
2017-09-24T13:33:59.911Z,5.80
2017-09-24T13:36:26.553Z,5.83
2017-09-24T13:38:53.429Z,5.10
2017-09-24T13:41:20.744Z,4.40
2017-09-24T13:43:47.402Z,13.27
2017-09-24T13:46:14.023Z,5.10
2017-09-24T13:48:41.004Z,6.40
2017-09-24T13:51:07.684Z,3.80
2017-09-24T13:53:34.339Z,5.87
2017-09-24T13:56:00.980Z,5.63
2017-09-24T13:58:27.601Z,5.97
2017-09-24T14:00:54.704Z,4.53
2017-09-24T14:03:21.557Z,5.30
2017-09-24T14:05:48.163Z,4.30
2017-09-24T14:08:14.814Z,6.60
2017-09-24T14:10:41.430Z,5.73
2017-09-24T14:13:08.073Z,5.23
2017-09-24T14:15:35.490Z,5.93
2017-09-24T14:18:03.136Z,8.30
2017-09-24T14:20:30.565Z,7.60
2017-09-24T14:22:57.197Z,11.63
2017-09-24T14:25:23.845Z,6.97
2017-09-24T14:27:51.211Z,7.93
2017-09-24T14:30:17.881Z,12.57
2017-09-24T14:32:45.564Z,18.00
2017-09-24T14:35:12.225Z,9.13
2017-09-24T14:37:38.839Z,7.70
2017-09-24T14:40:05.920Z,10.43
2017-09-24T14:42:32.538Z,5.90
2017-09-24T14:45:05.516Z,17.23
2017-09-24T14:47:32.454Z,5.63
2017-09-24T14:49:59.297Z,5.53
2017-09-24T14:52:26.430Z,6.70
2017-09-24T14:54:53.061Z,5.23
2017-09-24T14:57:20.471Z,5.37
2017-09-24T14:59:47.525Z,4.97
2017-09-24T15:02:14.139Z,6.10
2017-09-24T15:04:41.176Z,5.63
2017-09-24T15:07:07.927Z,7.60
2017-09-24T15:09:34.569Z,9.63
2017-09-24T15:12:01.193Z,5.53
2017-09-24T15:14:28.186Z,6.00
2017-09-24T15:16:54.838Z,6.80
2017-09-24T15:19:22.722Z,8.20
2017-09-24T15:21:50.262Z,4.93
2017-09-24T15:24:17.671Z,4.63
2017-09-24T15:26:44.335Z,6.00
2017-09-24T15:29:11.754Z,5.70
2017-09-24T15:31:38.589Z,6.60
2017-09-24T15:34:05.947Z,5.47
2017-09-24T15:36:32.892Z,5.93
2017-09-24T15:38:59.509Z,4.83
2017-09-24T15:41:26.517Z,5.40
2017-09-24T15:43:53.151Z,5.87
2017-09-24T15:46:19.870Z,7.53
2017-09-24T15:48:46.510Z,5.40
2017-09-24T15:51:13.397Z,6.00
2017-09-24T15:53:40.806Z,4.27
2017-09-24T15:56:08.133Z,4.50
2017-09-24T15:58:35.027Z,6.13
2017-09-24T16:01:01.635Z,5.97
2017-09-24T16:03:28.250Z,4.47
2017-09-24T16:05:54.877Z,6.53
2017-09-24T16:08:21.490Z,7.03
2017-09-24T16:10:49.197Z,5.47
2017-09-24T16:13:15.810Z,4.73
2017-09-24T16:15:43.190Z,5.80
2017-09-24T16:18:10.282Z,16.17
2017-09-24T16:20:37.703Z,6.40
2017-09-24T16:23:04.350Z,7.33
2017-09-24T16:25:31.581Z,9.40
2017-09-24T16:27:58.201Z,5.17
2017-09-24T16:30:24.844Z,5.97
2017-09-24T16:32:52.110Z,6.17
2017-09-24T16:35:19.053Z,18.63
2017-09-24T16:37:45.702Z,15.03
2017-09-24T16:40:12.811Z,13.30
2017-09-24T16:42:40.162Z,12.47
2017-09-24T16:45:07.538Z,12.00
2017-09-24T16:47:34.638Z,9.57
2017-09-24T16:50:01.323Z,15.70
2017-09-24T16:52:27.945Z,15.23
2017-09-24T16:54:55.574Z,14.90
2017-09-24T16:57:23.725Z,15.07
2017-09-24T16:59:50.395Z,13.23
2017-09-24T17:02:18.153Z,9.60
2017-09-24T17:04:45.157Z,14.13
2017-09-24T17:07:11.782Z,15.20
2017-09-24T17:09:38.433Z,15.10
2017-09-24T17:12:05.586Z,14.90
2017-09-24T17:14:32.246Z,13.83
2017-09-24T17:16:58.896Z,12.70
2017-09-24T17:19:27.134Z,6.17
2017-09-24T17:21:53.756Z,17.13
2017-09-24T17:24:20.618Z,8.73
2017-09-24T17:26:47.766Z,8.23
2017-09-24T17:29:14.390Z,9.20
2017-09-24T17:31:41.907Z,11.80
2017-09-24T17:34:08.797Z,12.87
2017-09-24T17:36:35.417Z,10.20
2017-09-24T17:39:02.891Z,19.40
2017-09-24T17:41:29.991Z,17.00
2017-09-24T17:43:56.681Z,8.90
2017-09-24T17:46:23.631Z,11.30
2017-09-24T17:48:50.614Z,10.23
2017-09-24T17:51:17.258Z,14.77
2017-09-24T17:53:44.262Z,11.53
2017-09-24T17:56:10.966Z,14.23
2017-09-24T17:58:38.949Z,7.90
2017-09-24T18:01:06.773Z,12.87
2017-09-24T18:03:33.681Z,9.80
2017-09-24T18:06:00.626Z,6.00
2017-09-24T18:08:27.614Z,14.13
2017-09-24T18:10:54.213Z,19.70
2017-09-24T18:13:20.831Z,8.03
2017-09-24T18:15:47.835Z,6.00
2017-09-24T18:18:14.499Z,9.30
2017-09-24T18:20:41.905Z,11.73
2017-09-24T18:23:08.962Z,6.30
2017-09-24T18:25:35.595Z,6.13
2017-09-24T18:28:02.210Z,5.60
2017-09-24T18:30:29.147Z,9.10
2017-09-24T18:32:56.098Z,7.33
2017-09-24T18:35:22.709Z,5.37
2017-09-24T18:37:50.339Z,6.20
2017-09-24T18:40:18.060Z,7.50
2017-09-24T18:42:44.737Z,16.00
2017-09-24T18:45:13.363Z,9.20
2017-09-24T18:47:40.056Z,8.43
2017-09-24T18:50:06.727Z,8.27
2017-09-24T18:52:34.351Z,6.70
2017-09-24T18:55:00.962Z,8.43
2017-09-24T18:57:27.902Z,8.83
2017-09-24T18:59:54.849Z,7.50
2017-09-24T19:02:22.204Z,7.93
2017-09-24T19:04:48.824Z,6.57
2017-09-24T19:07:15.450Z,7.27
2017-09-24T19:09:43.446Z,9.67
2017-09-24T19:12:10.076Z,6.80
2017-09-24T19:14:36.695Z,7.47
2017-09-24T19:17:04.518Z,6.47
2017-09-24T19:19:31.193Z,5.23
2017-09-24T19:21:58.557Z,11.33
2017-09-24T19:24:26.491Z,5.67
2017-09-24T19:26:54.635Z,5.30
2017-09-24T19:29:21.242Z,7.80
2017-09-24T19:31:48.341Z,7.07
2017-09-24T19:34:14.986Z,8.67
2017-09-24T19:36:43.090Z,5.43
2017-09-24T19:39:10.865Z,5.63
2017-09-24T19:41:37.481Z,5.47
2017-09-24T19:44:04.961Z,6.03
2017-09-24T19:46:32.171Z,5.93
2017-09-24T19:48:58.800Z,5.90
2017-09-24T19:51:25.916Z,9.03
2017-09-24T19:53:53.007Z,6.67
2017-09-24T19:56:19.686Z,7.63
2017-09-24T19:58:46.290Z,6.33
2017-09-24T20:01:13.588Z,5.23
2017-09-24T20:03:40.312Z,5.40
2017-09-24T20:06:06.926Z,5.57
2017-09-24T20:08:34.932Z,7.80
2017-09-24T20:11:01.578Z,5.53
2017-09-24T20:13:28.236Z,7.53
2017-09-24T20:15:55.194Z,5.43
2017-09-24T20:18:21.819Z,5.20
2017-09-24T20:20:48.485Z,5.17
2017-09-24T20:23:15.789Z,5.10
2017-09-24T20:25:42.404Z,5.37
2017-09-24T20:28:09.026Z,6.20
2017-09-24T20:30:36.409Z,6.87
2017-09-24T20:33:03.257Z,5.20
2017-09-24T20:35:30.350Z,5.50
2017-09-24T20:37:58.438Z,5.87
2017-09-24T20:40:25.815Z,5.60
2017-09-24T20:42:52.986Z,6.00
2017-09-24T20:45:19.600Z,5.27
2017-09-24T20:47:46.978Z,6.00
2017-09-24T20:50:14.071Z,5.03
2017-09-24T20:52:40.970Z,4.50
2017-09-24T20:55:07.589Z,8.50
2017-09-24T20:57:34.586Z,6.10
2017-09-24T21:00:01.597Z,7.10
2017-09-24T21:02:28.272Z,5.17
2017-09-24T21:04:55.694Z,5.03
2017-09-24T21:07:22.292Z,5.57
2017-09-24T21:09:49.705Z,5.37
2017-09-24T21:12:16.724Z,4.90
2017-09-24T21:14:43.336Z,4.97
2017-09-24T21:17:10.685Z,5.40
2017-09-24T21:19:38.432Z,5.43
2017-09-24T21:22:05.790Z,5.90
2017-09-24T21:24:33.401Z,5.10
2017-09-24T21:27:00.555Z,8.20
2017-09-24T21:29:27.196Z,5.37
2017-09-24T21:31:53.805Z,5.67
2017-09-24T21:34:21.637Z,4.20
2017-09-24T21:36:48.984Z,5.57
2017-09-24T21:39:15.609Z,4.77
2017-09-24T21:41:42.666Z,5.33
2017-09-24T21:44:09.577Z,4.90
2017-09-24T21:46:36.198Z,5.10
2017-09-24T21:49:03.093Z,5.50
2017-09-24T21:51:29.734Z,6.03
2017-09-24T21:53:56.399Z,4.97
2017-09-24T21:56:24.106Z,6.87
2017-09-24T21:58:50.713Z,7.27
2017-09-24T22:01:18.066Z,5.83
2017-09-24T22:03:45.786Z,6.33
2017-09-24T22:06:12.403Z,5.60
2017-09-24T22:08:39.261Z,5.00
2017-09-24T22:11:06.313Z,7.70
2017-09-24T22:13:32.944Z,5.07
2017-09-24T22:15:59.862Z,5.03
2017-09-24T22:18:27.047Z,8.70
2017-09-24T22:20:53.954Z,4.60
2017-09-24T22:23:20.568Z,4.93
2017-09-24T22:25:48.402Z,5.00
2017-09-24T22:28:15.403Z,4.87
2017-09-24T22:30:42.002Z,5.83
2017-09-24T22:33:09.381Z,4.70
2017-09-24T22:35:36.006Z,5.17
2017-09-24T22:38:03.837Z,5.30
2017-09-24T22:40:30.458Z,5.30
2017-09-24T22:42:57.068Z,5.03
2017-09-24T22:45:23.730Z,5.47
2017-09-24T22:47:50.347Z,5.43
2017-09-24T22:50:17.337Z,5.30
2017-09-24T22:52:45.057Z,5.30
2017-09-24T22:55:11.691Z,5.67
2017-09-24T22:57:38.789Z,6.73
2017-09-24T23:00:06.166Z,5.20
2017-09-24T23:02:33.522Z,5.23
2017-09-24T23:05:01.364Z,5.07
2017-09-24T23:07:28.742Z,5.97
2017-09-24T23:09:56.110Z,5.47
2017-09-24T23:12:23.839Z,5.57
2017-09-24T23:14:51.213Z,6.27
2017-09-24T23:17:18.583Z,5.93
2017-09-24T23:19:45.600Z,5.90
2017-09-24T23:22:12.951Z,5.13
2017-09-24T23:24:41.693Z,5.83
2017-09-24T23:27:08.640Z,7.80
2017-09-24T23:29:35.267Z,5.23
2017-09-24T23:32:02.158Z,5.30
2017-09-24T23:34:28.786Z,4.80
2017-09-24T23:36:55.698Z,6.60
2017-09-24T23:39:22.950Z,5.10
2017-09-24T23:41:49.563Z,5.20
2017-09-24T23:44:16.911Z,6.33
2017-09-24T23:46:44.560Z,6.07
2017-09-24T23:49:11.941Z,5.30
2017-09-24T23:51:39.828Z,5.50
2017-09-24T23:54:06.777Z,7.20
2017-09-24T23:56:33.396Z,5.33
2017-09-24T23:59:00.394Z,5.33
